Terminal Aerodrome Forecast
Issued by NWS Wilmington, NC

Home | Current Version | Previous Version | Text Only | Print | Product List | Glossary On
Versions: 1 2 3 4 5 6 7 8 9 10 11 12 13
000
FTUS42 KILM 192300
TAFMYR
TAF
KMYR 192321Z 2000/2024 VRB03KT P6SM BKN200
     FM200800 02005KT P6SM BKN120
     FM201200 04008KT P6SM -RA BKN040 OVC100
     FM201600 01009KT 6SM -RA BKN015 OVC040
      AMD LTD TO CLD VIS AND WIND 2004/2011=

USA.gov is the U.S. government's official web portal to all federal, state and local government web resources and services.